createdAt,value
2022-11-05T00:00:49.905Z,23.50
2022-11-05T00:03:36.147Z,23.48
2022-11-05T00:06:22.485Z,23.48
2022-11-05T00:09:17.693Z,23.48
2022-11-05T00:12:04.019Z,23.48
2022-11-05T00:14:51.645Z,23.51
2022-11-05T00:17:20.517Z,23.54
2022-11-05T00:19:49.456Z,23.55
2022-11-05T00:22:35.582Z,23.52
2022-11-05T00:25:17.761Z,23.50
2022-11-05T00:27:47.473Z,23.50
2022-11-05T00:30:19.288Z,23.50
2022-11-05T00:32:48.718Z,23.50
2022-11-05T00:35:18.043Z,23.48
2022-11-05T00:37:50.093Z,23.50
2022-11-05T00:40:19.762Z,23.48
2022-11-05T00:43:06.339Z,23.49
2022-11-05T00:45:37.875Z,23.48
2022-11-05T00:48:24.557Z,23.48
2022-11-05T00:50:53.350Z,23.48
2022-11-05T00:53:22.264Z,23.48
2022-11-05T00:55:51.053Z,23.48
2022-11-05T00:58:20.759Z,23.47
2022-11-05T01:00:52.412Z,23.47
2022-11-05T01:03:22.187Z,23.47
2022-11-05T01:05:52.138Z,23.46
2022-11-05T01:08:22.625Z,23.48
2022-11-05T01:10:52.176Z,23.47
2022-11-05T01:13:26.039Z,23.48
2022-11-05T01:15:56.301Z,23.48
2022-11-05T01:18:25.501Z,23.47
2022-11-05T01:20:54.301Z,23.47
2022-11-05T01:23:23.251Z,23.47
2022-11-05T01:25:52.071Z,23.47
2022-11-05T01:28:21.109Z,23.47
2022-11-05T01:30:58.359Z,23.47
2022-11-05T01:33:27.524Z,23.45
2022-11-05T01:35:56.250Z,23.46
2022-11-05T01:38:25.266Z,23.46
2022-11-05T01:40:54.223Z,23.46
2022-11-05T01:43:24.043Z,23.46
2022-11-05T01:45:54.052Z,23.46
2022-11-05T01:48:25.038Z,23.45
2022-11-05T01:50:57.294Z,23.46
2022-11-05T01:53:28.680Z,23.47
2022-11-05T01:56:00.482Z,23.46
2022-11-05T01:58:36.095Z,23.46
2022-11-05T02:01:05.007Z,23.46
2022-11-05T02:03:35.327Z,23.46
2022-11-05T02:06:04.153Z,23.44
2022-11-05T02:08:43.564Z,23.45
2022-11-05T02:11:13.582Z,23.45
2022-11-05T02:13:42.442Z,23.45
2022-11-05T02:16:14.020Z,23.45
2022-11-05T02:18:48.384Z,23.44
2022-11-05T02:21:56.674Z,23.44
2022-11-05T02:24:51.038Z,23.42
2022-11-05T02:27:22.441Z,23.43
2022-11-05T02:30:23.208Z,23.42
2022-11-05T02:33:03.515Z,23.44
2022-11-05T02:35:43.833Z,23.42
2022-11-05T02:38:14.805Z,23.42
2022-11-05T02:40:48.547Z,23.45
2022-11-05T02:43:21.919Z,23.45
2022-11-05T02:45:53.321Z,23.44
2022-11-05T02:48:27.944Z,23.43
2022-11-05T02:51:00.729Z,23.44
2022-11-05T02:53:33.517Z,23.44
2022-11-05T02:56:04.041Z,23.42
2022-11-05T02:58:34.280Z,23.42
2022-11-05T03:01:06.961Z,23.41
2022-11-05T03:03:38.659Z,23.43
2022-11-05T03:06:18.067Z,23.43
2022-11-05T03:09:10.693Z,23.43
2022-11-05T03:11:42.880Z,23.43
2022-11-05T03:14:16.659Z,23.42
2022-11-05T03:16:48.323Z,23.41
2022-11-05T03:19:20.926Z,23.42
2022-11-05T03:21:51.640Z,23.41
2022-11-05T03:24:21.662Z,23.41
2022-11-05T03:26:52.535Z,23.40
2022-11-05T03:29:23.273Z,23.40
2022-11-05T03:31:52.626Z,23.41
2022-11-05T03:34:26.090Z,23.43
2022-11-05T03:36:55.917Z,23.40
2022-11-05T03:39:28.861Z,23.42
2022-11-05T03:41:58.229Z,23.40
2022-11-05T03:44:28.499Z,23.40
2022-11-05T03:47:00.437Z,23.41
2022-11-05T03:49:34.328Z,23.41
2022-11-05T03:52:05.706Z,23.40
2022-11-05T03:54:34.849Z,23.37
2022-11-05T03:57:06.055Z,23.40
2022-11-05T03:59:39.599Z,23.38
2022-11-05T04:02:08.575Z,23.38
2022-11-05T04:04:39.018Z,23.38
2022-11-05T04:07:25.369Z,23.37
2022-11-05T04:10:11.528Z,23.38
2022-11-05T04:12:57.610Z,23.38
2022-11-05T04:15:27.101Z,23.38
2022-11-05T04:17:55.560Z,23.37
2022-11-05T04:20:43.737Z,23.36
2022-11-05T04:23:30.009Z,23.37
2022-11-05T04:25:58.937Z,23.36
2022-11-05T04:28:48.326Z,23.37
2022-11-05T04:31:16.236Z,23.35
2022-11-05T04:33:45.004Z,23.37
2022-11-05T04:36:15.287Z,23.37
2022-11-05T04:38:44.100Z,23.36
2022-11-05T04:41:16.696Z,23.37
2022-11-05T04:43:45.811Z,23.35
2022-11-05T04:46:14.727Z,23.35
2022-11-05T04:48:43.555Z,23.36
2022-11-05T04:51:14.036Z,23.36
2022-11-05T04:53:42.780Z,23.35
2022-11-05T04:56:12.710Z,23.36
2022-11-05T04:58:42.005Z,23.36
2022-11-05T05:01:13.807Z,23.37
2022-11-05T05:03:42.688Z,23.36
2022-11-05T05:06:11.616Z,23.37
2022-11-05T05:08:41.816Z,23.34
2022-11-05T05:11:11.947Z,23.35
2022-11-05T05:13:40.796Z,23.35
2022-11-05T05:16:10.427Z,23.35
2022-11-05T05:18:43.637Z,23.34
2022-11-05T05:21:32.744Z,23.34
2022-11-05T05:24:03.004Z,23.31
2022-11-05T05:26:32.021Z,23.31
2022-11-05T05:29:01.296Z,23.29
2022-11-05T05:31:30.147Z,23.31
2022-11-05T05:33:59.017Z,23.29
2022-11-05T05:36:27.927Z,23.29
2022-11-05T05:38:56.818Z,23.30
2022-11-05T05:41:27.144Z,23.30
2022-11-05T05:43:55.997Z,23.32
2022-11-05T05:46:25.141Z,23.31
2022-11-05T05:48:53.995Z,23.30
2022-11-05T05:51:22.841Z,23.28
2022-11-05T05:53:53.818Z,23.29
2022-11-05T05:56:22.659Z,23.32
2022-11-05T05:58:53.331Z,23.29
2022-11-05T06:01:22.215Z,23.29
2022-11-05T06:03:51.157Z,23.29
2022-11-05T06:06:21.180Z,23.29
2022-11-05T06:08:50.268Z,23.27
2022-11-05T06:11:19.042Z,23.28
2022-11-05T06:13:47.778Z,23.29
2022-11-05T06:16:19.443Z,23.31
2022-11-05T06:18:48.317Z,23.31
2022-11-05T06:21:18.102Z,23.31
2022-11-05T06:23:48.468Z,23.30
2022-11-05T06:26:18.367Z,23.29
2022-11-05T06:28:47.252Z,23.26
2022-11-05T06:31:17.942Z,23.25
2022-11-05T06:33:47.291Z,23.23
2022-11-05T06:36:17.285Z,23.21
2022-11-05T06:38:46.066Z,23.20
2022-11-05T06:41:14.841Z,23.22
2022-11-05T06:43:43.748Z,23.28
2022-11-05T06:46:12.668Z,23.28
2022-11-05T06:48:42.941Z,23.34
2022-11-05T06:51:11.908Z,23.37
2022-11-05T06:53:40.708Z,23.38
2022-11-05T06:56:09.897Z,23.37
2022-11-05T06:58:38.716Z,23.41
2022-11-05T07:01:09.040Z,23.34
2022-11-05T07:03:37.998Z,23.41
2022-11-05T07:06:08.732Z,23.46
2022-11-05T07:08:38.019Z,23.45
2022-11-05T07:11:07.033Z,23.40
2022-11-05T07:13:35.921Z,23.41
2022-11-05T07:16:04.796Z,23.43
2022-11-05T07:18:33.713Z,23.44
2022-11-05T07:21:02.491Z,23.45
2022-11-05T07:23:32.616Z,23.44
2022-11-05T07:26:02.914Z,23.42
2022-11-05T07:28:31.732Z,23.43
2022-11-05T07:31:00.689Z,23.42
2022-11-05T07:33:35.243Z,23.42
2022-11-05T07:36:05.520Z,23.40
2022-11-05T07:38:35.808Z,23.42
2022-11-05T07:41:04.644Z,23.42
2022-11-05T07:43:33.564Z,23.42
2022-11-05T07:46:02.351Z,23.45
2022-11-05T07:48:31.225Z,23.46
2022-11-05T07:51:00.076Z,23.45
2022-11-05T07:53:28.888Z,23.45
2022-11-05T07:55:59.145Z,23.47
2022-11-05T07:58:28.020Z,23.46
2022-11-05T08:00:58.140Z,23.36
2022-11-05T08:03:27.175Z,23.28
2022-11-05T08:05:56.276Z,23.25
2022-11-05T08:08:25.126Z,23.20
2022-11-05T08:10:54.038Z,23.26
2022-11-05T08:13:24.215Z,23.26
2022-11-05T08:15:53.266Z,23.25
2022-11-05T08:18:22.097Z,23.25
2022-11-05T08:20:51.031Z,23.22
2022-11-05T08:23:19.926Z,23.25
2022-11-05T08:25:48.840Z,23.22
2022-11-05T08:28:17.663Z,23.23
2022-11-05T08:30:50.450Z,23.19
2022-11-05T08:33:19.269Z,23.22
2022-11-05T08:35:48.086Z,23.17
2022-11-05T08:38:17.806Z,23.24
2022-11-05T08:40:47.456Z,23.26
2022-11-05T08:43:16.211Z,23.25
2022-11-05T08:45:44.931Z,23.27
2022-11-05T08:48:16.011Z,23.34
2022-11-05T08:50:45.089Z,23.29
2022-11-05T08:53:14.316Z,23.31
2022-11-05T08:55:43.981Z,23.32
2022-11-05T08:58:15.222Z,23.34
2022-11-05T09:00:44.239Z,23.31
2022-11-05T09:03:15.218Z,23.35
2022-11-05T09:05:44.540Z,23.35
2022-11-05T09:08:14.672Z,23.37
2022-11-05T09:10:43.563Z,23.40
2022-11-05T09:13:18.228Z,23.40
2022-11-05T09:15:49.231Z,23.41
2022-11-05T09:18:22.590Z,23.40
2022-11-05T09:20:51.375Z,23.41
2022-11-05T09:23:20.466Z,23.45
2022-11-05T09:25:49.267Z,23.44
2022-11-05T09:28:20.423Z,23.44
2022-11-05T09:30:49.978Z,23.44
2022-11-05T09:33:19.333Z,23.43
2022-11-05T09:35:49.519Z,23.45
2022-11-05T09:38:18.587Z,23.45
2022-11-05T09:40:54.510Z,23.48
2022-11-05T09:43:31.209Z,23.49
2022-11-05T09:46:00.931Z,23.47
2022-11-05T09:48:30.703Z,23.50
2022-11-05T09:51:00.864Z,23.49
2022-11-05T09:53:29.767Z,23.51
2022-11-05T09:56:00.009Z,23.51
2022-11-05T09:58:37.171Z,23.53
2022-11-05T10:01:06.232Z,23.51
2022-11-05T10:03:35.074Z,23.51
2022-11-05T10:06:08.831Z,23.47
2022-11-05T10:08:41.524Z,23.50
2022-11-05T10:11:12.845Z,23.51
2022-11-05T10:13:44.058Z,23.47
2022-11-05T10:16:23.171Z,23.51
2022-11-05T10:18:54.527Z,23.52
2022-11-05T10:21:51.328Z,23.53
2022-11-05T10:24:15.177Z,23.52
2022-11-05T10:26:46.131Z,23.52
2022-11-05T10:29:16.914Z,23.53
2022-11-05T10:31:45.725Z,23.52
2022-11-05T10:34:17.875Z,23.52
2022-11-05T10:36:48.121Z,23.53
2022-11-05T10:39:18.129Z,23.52
2022-11-05T10:42:00.751Z,23.49
2022-11-05T10:44:34.212Z,23.50
2022-11-05T10:47:10.119Z,23.50
2022-11-05T10:49:45.782Z,23.50
2022-11-05T10:52:21.910Z,23.50
2022-11-05T10:54:51.202Z,23.50
2022-11-05T10:57:31.415Z,23.51
2022-11-05T11:00:24.267Z,23.50
2022-11-05T11:02:54.557Z,23.50
2022-11-05T11:05:24.914Z,23.51
2022-11-05T11:07:59.511Z,23.51
2022-11-05T11:10:31.756Z,23.51
2022-11-05T11:13:00.557Z,23.51
2022-11-05T11:15:32.556Z,23.48
2022-11-05T11:18:18.832Z,23.45
2022-11-05T11:20:47.772Z,23.48
2022-11-05T11:23:18.202Z,23.48
2022-11-05T11:25:48.956Z,23.50
2022-11-05T11:28:23.911Z,23.48
2022-11-05T11:30:55.545Z,23.46
2022-11-05T11:33:27.176Z,23.46
2022-11-05T11:35:57.913Z,23.48
2022-11-05T11:38:30.250Z,23.45
2022-11-05T11:41:03.611Z,23.48
2022-11-05T11:43:34.474Z,23.49
2022-11-05T11:46:07.803Z,23.46
2022-11-05T11:48:38.746Z,23.45
2022-11-05T11:51:31.175Z,23.49
2022-11-05T11:54:02.184Z,23.47
2022-11-05T11:56:32.658Z,23.48
2022-11-05T11:59:04.096Z,23.47
2022-11-05T12:01:59.373Z,23.45
2022-11-05T12:04:52.757Z,23.45
2022-11-05T12:07:29.416Z,23.43
2022-11-05T12:10:09.450Z,23.46
2022-11-05T12:12:40.644Z,23.45
2022-11-05T12:15:22.922Z,23.39
2022-11-05T12:17:53.412Z,23.44
2022-11-05T12:20:37.241Z,23.48
2022-11-05T12:23:23.058Z,23.45
2022-11-05T12:25:56.654Z,23.41
2022-11-05T12:29:12.173Z,23.44
2022-11-05T12:31:36.703Z,23.45
2022-11-05T12:34:13.712Z,23.48
2022-11-05T12:36:53.171Z,23.47
2022-11-05T12:39:36.615Z,23.46
2022-11-05T12:42:09.328Z,23.47
2022-11-05T12:44:56.260Z,23.47
2022-11-05T12:47:44.582Z,23.51
2022-11-05T12:50:18.346Z,23.52
2022-11-05T12:53:17.094Z,23.50
2022-11-05T12:55:48.727Z,23.52
2022-11-05T12:58:22.257Z,23.53
2022-11-05T13:00:53.084Z,23.54
2022-11-05T13:03:28.496Z,23.55
2022-11-05T13:06:05.449Z,23.56
2022-11-05T13:08:37.946Z,23.58
2022-11-05T13:11:12.871Z,23.57
2022-11-05T13:13:45.410Z,23.57
2022-11-05T13:16:14.925Z,23.57
2022-11-05T13:18:46.233Z,23.58
2022-11-05T13:21:15.056Z,23.61
2022-11-05T13:23:45.547Z,23.58
2022-11-05T13:26:19.729Z,23.62
2022-11-05T13:28:55.031Z,23.64
2022-11-05T13:31:25.503Z,23.63
2022-11-05T13:33:54.544Z,23.63
2022-11-05T13:36:42.138Z,23.63
2022-11-05T13:39:15.747Z,23.63
2022-11-05T13:41:54.960Z,23.64
2022-11-05T13:44:47.765Z,23.64
2022-11-05T13:47:29.427Z,23.65
2022-11-05T13:50:25.891Z,23.67
2022-11-05T13:53:06.478Z,23.69
2022-11-05T13:56:07.390Z,23.66
2022-11-05T13:59:11.458Z,23.65
2022-11-05T14:01:50.757Z,23.63
2022-11-05T14:04:28.818Z,23.67
2022-11-05T14:07:05.868Z,23.65
2022-11-05T14:09:35.574Z,23.65
2022-11-05T14:12:05.155Z,23.68
2022-11-05T14:14:41.433Z,23.64
2022-11-05T14:17:22.441Z,23.63
2022-11-05T14:19:53.055Z,23.63
2022-11-05T14:22:41.280Z,23.62
2022-11-05T14:26:01.789Z,23.62
2022-11-05T14:28:42.788Z,23.61
2022-11-05T14:31:47.381Z,23.60
2022-11-05T14:34:48.971Z,23.60
2022-11-05T14:37:28.360Z,23.62
2022-11-05T14:39:57.456Z,23.61
2022-11-05T14:42:27.956Z,23.61
2022-11-05T14:45:02.152Z,23.63
2022-11-05T14:47:33.945Z,23.63
2022-11-05T14:50:11.575Z,23.63
2022-11-05T14:52:41.015Z,23.65
2022-11-05T14:55:28.492Z,23.65
2022-11-05T14:58:34.416Z,23.66
2022-11-05T15:01:03.917Z,23.67
2022-11-05T15:04:03.663Z,23.67
2022-11-05T15:06:35.279Z,23.67
2022-11-05T15:09:22.839Z,23.67
2022-11-05T15:12:09.171Z,23.68
2022-11-05T15:14:42.327Z,23.70
2022-11-05T15:17:17.399Z,23.70
2022-11-05T15:19:49.421Z,23.71
2022-11-05T15:22:28.242Z,23.72
2022-11-05T15:24:57.138Z,23.73
2022-11-05T15:27:40.688Z,23.72
2022-11-05T15:30:19.803Z,23.72
2022-11-05T15:32:48.666Z,23.71
2022-11-05T15:35:23.480Z,23.71
2022-11-05T15:38:00.354Z,23.70
2022-11-05T15:40:32.562Z,23.71
2022-11-05T15:43:20.724Z,23.69
2022-11-05T15:46:07.041Z,23.71
2022-11-05T15:48:36.263Z,23.70
2022-11-05T15:51:05.153Z,23.69
2022-11-05T15:54:08.430Z,23.70
2022-11-05T15:56:29.131Z,23.68
2022-11-05T15:59:00.144Z,23.69
2022-11-05T16:01:31.211Z,23.66
2022-11-05T16:04:04.465Z,23.68
2022-11-05T16:06:38.793Z,23.65
2022-11-05T16:09:08.970Z,23.66
2022-11-05T16:11:37.912Z,23.66
2022-11-05T16:14:16.992Z,23.65
2022-11-05T16:16:46.031Z,23.64
2022-11-05T16:19:39.881Z,23.62
2022-11-05T16:22:09.738Z,23.61
2022-11-05T16:24:39.823Z,23.58
2022-11-05T16:27:18.960Z,23.60
2022-11-05T16:30:18.066Z,23.60
2022-11-05T16:32:46.976Z,23.59
2022-11-05T16:35:20.723Z,23.59
2022-11-05T16:37:52.227Z,23.58
2022-11-05T16:40:24.088Z,23.57
2022-11-05T16:42:53.173Z,23.58
2022-11-05T16:45:22.615Z,23.58
2022-11-05T16:47:51.578Z,23.57
2022-11-05T16:50:23.731Z,23.56
2022-11-05T16:52:52.738Z,23.53
2022-11-05T16:55:22.891Z,23.54
2022-11-05T16:57:55.430Z,23.56
2022-11-05T17:00:24.605Z,23.54
2022-11-05T17:02:53.822Z,23.55
2022-11-05T17:05:24.541Z,23.58
2022-11-05T17:07:53.581Z,23.57
2022-11-05T17:10:24.427Z,23.57
2022-11-05T17:12:53.327Z,23.54
2022-11-05T17:15:24.055Z,23.54
2022-11-05T17:17:53.061Z,23.54
2022-11-05T17:20:36.785Z,23.54
2022-11-05T17:23:09.390Z,23.54
2022-11-05T17:25:39.821Z,23.54
2022-11-05T17:28:08.908Z,23.53
2022-11-05T17:30:40.385Z,23.52
2022-11-05T17:33:11.172Z,23.54
2022-11-05T17:35:40.828Z,23.55
2022-11-05T17:38:10.065Z,23.53
2022-11-05T17:40:40.444Z,23.55
2022-11-05T17:43:09.906Z,23.55
2022-11-05T17:45:43.845Z,23.55
2022-11-05T17:48:12.771Z,23.54
2022-11-05T17:50:42.399Z,23.54
2022-11-05T17:53:11.658Z,23.54
2022-11-05T17:55:43.194Z,23.55
2022-11-05T17:58:11.972Z,23.56
2022-11-05T18:00:40.746Z,23.55
2022-11-05T18:03:10.407Z,23.55
2022-11-05T18:05:40.070Z,23.53
2022-11-05T18:08:08.640Z,23.56
2022-11-05T18:10:37.987Z,23.56
2022-11-05T18:13:08.036Z,23.55
2022-11-05T18:15:40.929Z,23.55
2022-11-05T18:18:09.891Z,23.56
2022-11-05T18:20:38.651Z,23.56
2022-11-05T18:23:07.218Z,23.58
2022-11-05T18:25:35.713Z,23.57
2022-11-05T18:28:04.351Z,23.57
2022-11-05T18:30:34.332Z,23.58
2022-11-05T18:33:03.033Z,23.57
2022-11-05T18:35:31.849Z,23.56
2022-11-05T18:38:00.365Z,23.56
2022-11-05T18:40:28.888Z,23.56
2022-11-05T18:42:57.412Z,23.57
2022-11-05T18:45:29.702Z,23.57
2022-11-05T18:48:00.531Z,23.63
2022-11-05T18:50:29.410Z,23.59
2022-11-05T18:52:58.292Z,23.55
2022-11-05T18:55:27.264Z,23.52
2022-11-05T18:57:56.146Z,23.50
2022-11-05T19:00:25.004Z,23.50
2022-11-05T19:02:54.269Z,23.51
2022-11-05T19:05:29.423Z,23.52
2022-11-05T19:07:58.993Z,23.52
2022-11-05T19:10:28.067Z,23.53
2022-11-05T19:12:56.994Z,23.51
2022-11-05T19:15:26.873Z,23.51
2022-11-05T19:17:55.729Z,23.52
2022-11-05T19:20:25.989Z,23.53
2022-11-05T19:22:54.792Z,23.53
2022-11-05T19:25:23.584Z,23.52
2022-11-05T19:27:52.416Z,23.51
2022-11-05T19:30:22.637Z,23.53
2022-11-05T19:32:51.470Z,23.53
2022-11-05T19:35:20.311Z,23.51
2022-11-05T19:37:53.423Z,23.52
2022-11-05T19:40:22.400Z,23.51
2022-11-05T19:42:51.186Z,23.55
2022-11-05T19:45:43.481Z,23.53
2022-11-05T19:48:11.428Z,23.49
2022-11-05T19:50:43.113Z,23.53
2022-11-05T19:53:13.414Z,23.57
2022-11-05T19:55:42.377Z,23.55
2022-11-05T19:58:11.701Z,23.55
2022-11-05T20:00:40.649Z,23.50
2022-11-05T20:03:10.516Z,23.51
2022-11-05T20:05:39.504Z,23.47
2022-11-05T20:08:08.428Z,23.46
2022-11-05T20:10:40.009Z,23.45
2022-11-05T20:13:08.904Z,23.45
2022-11-05T20:15:39.726Z,23.46
2022-11-05T20:18:08.721Z,23.43
2022-11-05T20:20:37.625Z,23.43
2022-11-05T20:23:06.437Z,23.43
2022-11-05T20:25:35.384Z,23.42
2022-11-05T20:28:05.959Z,23.42
2022-11-05T20:30:35.664Z,23.40
2022-11-05T20:33:04.709Z,23.40
2022-11-05T20:35:33.544Z,23.41
2022-11-05T20:38:02.339Z,23.40
2022-11-05T20:40:31.155Z,23.38
2022-11-05T20:43:00.028Z,23.40
2022-11-05T20:45:30.404Z,23.40
2022-11-05T20:47:59.456Z,23.38
2022-11-05T20:50:29.366Z,23.38
2022-11-05T20:52:58.220Z,23.38
2022-11-05T20:55:26.752Z,23.38
2022-11-05T20:57:55.427Z,23.39
2022-11-05T21:00:24.386Z,23.44
2022-11-05T21:02:54.738Z,23.48
2022-11-05T21:05:23.474Z,23.47
2022-11-05T21:07:52.119Z,23.44
2022-11-05T21:10:20.641Z,23.41
2022-11-05T21:12:49.281Z,23.38
2022-11-05T21:15:23.156Z,23.36
2022-11-05T21:17:53.092Z,23.35
2022-11-05T21:20:22.516Z,23.35
2022-11-05T21:22:51.101Z,23.35
2022-11-05T21:25:19.555Z,23.35
2022-11-05T21:27:48.002Z,23.35
2022-11-05T21:30:16.548Z,23.36
2022-11-05T21:32:45.068Z,23.35
2022-11-05T21:35:14.950Z,23.35
2022-11-05T21:37:43.469Z,23.31
2022-11-05T21:40:13.060Z,23.34
2022-11-05T21:42:41.570Z,23.32
2022-11-05T21:45:11.458Z,23.32
2022-11-05T21:47:39.979Z,23.30
2022-11-05T21:50:09.953Z,23.31
2022-11-05T21:52:57.281Z,23.30
2022-11-05T21:55:43.531Z,23.31
2022-11-05T21:58:32.107Z,23.29
2022-11-05T22:01:01.309Z,23.29
2022-11-05T22:03:30.115Z,23.30
2022-11-05T22:05:58.649Z,23.29
2022-11-05T22:08:28.547Z,23.28
2022-11-05T22:10:57.066Z,23.27
2022-11-05T22:13:25.617Z,23.28
2022-11-05T22:15:57.179Z,23.28
2022-11-05T22:18:25.916Z,23.27
2022-11-05T22:20:54.579Z,23.28
2022-11-05T22:23:23.331Z,23.27
2022-11-05T22:25:59.888Z,23.27
2022-11-05T22:28:30.795Z,23.28
2022-11-05T22:30:59.417Z,23.25
2022-11-05T22:33:27.979Z,23.25
2022-11-05T22:35:56.785Z,23.24
2022-11-05T22:38:25.279Z,23.23
2022-11-05T22:40:55.252Z,23.24
2022-11-05T22:43:23.768Z,23.25
2022-11-05T22:45:52.312Z,23.25
2022-11-05T22:48:20.804Z,23.25
2022-11-05T22:50:49.338Z,23.24
2022-11-05T22:53:17.953Z,23.25
2022-11-05T22:55:46.476Z,23.25
2022-11-05T22:58:16.532Z,23.24
2022-11-05T23:00:45.172Z,23.26
2022-11-05T23:03:14.397Z,23.26
2022-11-05T23:05:42.943Z,23.23
2022-11-05T23:08:28.905Z,23.25
2022-11-05T23:11:22.890Z,23.29
2022-11-05T23:13:52.903Z,23.34
2022-11-05T23:16:38.802Z,23.36
2022-11-05T23:19:24.957Z,23.36
2022-11-05T23:22:10.992Z,23.38
2022-11-05T23:24:39.685Z,23.33
2022-11-05T23:27:08.307Z,23.34
2022-11-05T23:29:38.700Z,23.35
2022-11-05T23:32:25.151Z,23.30
2022-11-05T23:34:53.811Z,23.27
2022-11-05T23:37:40.702Z,23.24
2022-11-05T23:40:12.201Z,23.23
2022-11-05T23:42:58.268Z,23.25
2022-11-05T23:45:45.701Z,23.26
2022-11-05T23:48:17.398Z,23.24
2022-11-05T23:50:48.204Z,23.25
2022-11-05T23:53:16.694Z,23.23
2022-11-05T23:55:45.247Z,23.23
2022-11-05T23:58:13.977Z,23.24
